Time,TemperatureF,DewpointF,PressureIn,WindDirection,WindDirectionDegrees,WindSpeedMPH,WindSpeedGustMPH,Humidity,HourlyPrecipIn,Conditions,Clouds,dailyrainin,SolarRadiationWatts/m^2,SoftwareType,DateUTC
2013-02-27 00:07:00,46.1,42.0,30.20,North,-999,0.0,0.0,85,0.00,,,0.00,0,weatherlink.com 1.10,2013-02-27 08:07:00,
2013-02-27 00:22:00,45.9,41.0,30.20,North,-999,0.0,0.0,84,0.00,,,0.00,0,weatherlink.com 1.10,2013-02-27 08:22:00,
2013-02-27 00:37:00,46.2,41.0,30.20,North,-999,0.0,0.0,81,0.00,,,0.00,0,weatherlink.com 1.10,2013-02-27 08:37:00,
2013-02-27 00:52:00,46.3,40.0,30.20,North,-999,0.0,0.0,80,0.00,,,0.00,0,weatherlink.com 1.10,2013-02-27 08:52:00,
2013-02-27 01:07:00,46.3,38.0,30.20,North,-999,0.0,0.0,73,0.00,,,0.00,0,weatherlink.com 1.10,2013-02-27 09:07:00,
2013-02-27 01:22:00,47.3,38.0,30.21,North,-999,0.0,0.0,71,0.00,,,0.00,0,weatherlink.com 1.10,2013-02-27 09:22:00,
2013-02-27 01:37:00,47.4,38.0,30.21,North,-999,0.0,0.0,69,0.00,,,0.00,0,weatherlink.com 1.10,2013-02-27 09:37:00,
2013-02-27 01:53:00,47.5,40.0,30.22,North,-999,0.0,0.0,76,0.00,,,0.00,0,weatherlink.com 1.10,2013-02-27 09:53:00,
2013-02-27 02:08:00,46.2,42.0,30.22,North,-999,0.0,0.0,84,0.00,,,0.00,0,weatherlink.com 1.10,2013-02-27 10:08:00,
2013-02-27 02:23:00,45.6,41.0,30.22,North,-999,0.0,0.0,85,0.00,,,0.00,0,weatherlink.com 1.10,2013-02-27 10:23:00,
2013-02-27 02:38:00,45.1,42.0,30.22,North,-999,0.0,0.0,87,0.00,,,0.00,0,weatherlink.com 1.10,2013-02-27 10:38:00,
2013-02-27 02:53:00,44.6,42.0,30.23,North,-999,0.0,0.0,89,0.00,,,0.00,0,weatherlink.com 1.10,2013-02-27 10:53:00,
2013-02-27 03:08:00,44.1,42.0,30.22,North,-999,0.0,0.0,91,0.00,,,0.00,0,weatherlink.com 1.10,2013-02-27 11:08:00,
2013-02-27 03:23:00,44.2,42.0,30.22,North,-999,0.0,0.0,92,0.00,,,0.00,0,weatherlink.com 1.10,2013-02-27 11:23:00,
2013-02-27 03:38:00,44.3,42.0,30.22,North,-999,0.0,0.0,91,0.00,,,0.00,0,weatherlink.com 1.10,2013-02-27 11:38:00,
2013-02-27 03:53:00,44.2,39.0,30.22,North,360,0.0,0.0,81,0.00,,,0.00,0,weatherlink.com 1.10,2013-02-27 11:53:00,
2013-02-27 04:08:00,45.1,38.0,30.22,North,360,0.0,0.0,75,0.00,,,0.00,0,weatherlink.com 1.10,2013-02-27 12:08:00,
2013-02-27 04:23:00,46.0,37.0,30.22,North,-999,0.0,0.0,71,0.00,,,0.00,0,weatherlink.com 1.10,2013-02-27 12:23:00,
2013-02-27 04:38:00,46.8,39.0,30.22,North,-999,0.0,0.0,75,0.00,,,0.00,0,weatherlink.com 1.10,2013-02-27 12:38:00,
2013-02-27 04:53:00,46.8,39.0,30.22,North,-999,0.0,0.0,73,0.00,,,0.00,0,weatherlink.com 1.10,2013-02-27 12:53:00,
2013-02-27 05:08:00,47.0,39.0,30.22,North,-999,0.0,0.0,73,0.00,,,0.00,0,weatherlink.com 1.10,2013-02-27 13:08:00,
2013-02-27 05:23:00,47.1,38.0,30.22,North,-999,0.0,0.0,71,0.00,,,0.00,0,weatherlink.com 1.10,2013-02-27 13:23:00,
2013-02-27 05:38:00,47.2,39.0,30.23,North,-999,0.0,0.0,74,0.00,,,0.00,0,weatherlink.com 1.10,2013-02-27 13:38:00,
2013-02-27 05:53:00,47.0,38.0,30.24,North,-999,0.0,0.0,71,0.00,,,0.00,0,weatherlink.com 1.10,2013-02-27 13:53:00,
2013-02-27 06:08:00,46.1,41.0,30.24,North,-999,0.0,0.0,82,0.00,,,0.00,0,weatherlink.com 1.10,2013-02-27 14:08:00,
2013-02-27 06:23:00,45.1,40.0,30.24,North,-999,0.0,0.0,82,0.00,,,0.00,0,weatherlink.com 1.10,2013-02-27 14:23:00,
2013-02-27 06:38:00,44.4,40.0,30.25,North,360,0.0,0.0,85,0.00,,,0.00,0,weatherlink.com 1.10,2013-02-27 14:38:00,
2013-02-27 06:53:00,44.0,40.0,30.26,North,-999,0.0,0.0,85,0.00,,,0.00,11,weatherlink.com 1.10,2013-02-27 14:53:00,
2013-02-27 07:08:00,44.3,41.0,30.26,North,360,0.0,0.0,89,0.00,,,0.00,26,weatherlink.com 1.10,2013-02-27 15:08:00,
2013-02-27 07:23:00,44.5,42.0,30.27,North,360,0.0,0.0,91,0.00,,,0.00,32,weatherlink.com 1.10,2013-02-27 15:23:00,
2013-02-27 07:38:00,44.9,42.0,30.27,North,360,0.0,0.0,90,0.00,,,0.00,67,weatherlink.com 1.10,2013-02-27 15:38:00,
2013-02-27 07:53:00,46.0,43.0,30.28,North,360,0.0,0.0,88,0.00,,,0.00,98,weatherlink.com 1.10,2013-02-27 15:53:00,
2013-02-27 08:08:00,46.8,42.0,30.28,North,360,0.0,0.0,84,0.00,,,0.00,56,weatherlink.com 1.10,2013-02-27 16:08:00,
2013-02-27 08:23:00,47.9,43.0,30.29,North,360,0.0,0.0,84,0.00,,,0.00,128,weatherlink.com 1.10,2013-02-27 16:23:00,
2013-02-27 08:38:00,49.0,44.0,30.29,North,-999,0.0,0.0,83,0.00,,,0.00,265,weatherlink.com 1.10,2013-02-27 16:38:00,
2013-02-27 08:53:00,49.9,45.0,30.30,North,-999,0.0,0.0,83,0.00,,,0.00,193,weatherlink.com 1.10,2013-02-27 16:53:00,
2013-02-27 09:08:00,52.1,46.0,30.30,North,-999,0.0,0.0,79,0.00,,,0.00,343,weatherlink.com 1.10,2013-02-27 17:08:00,
2013-02-27 09:24:00,53.7,46.0,30.31,North,360,0.0,0.0,75,0.00,,,0.00,188,weatherlink.com 1.10,2013-02-27 17:24:00,
2013-02-27 09:39:00,53.2,47.0,30.31,North,-999,0.0,0.0,78,0.00,,,0.00,450,weatherlink.com 1.10,2013-02-27 17:39:00,
2013-02-27 09:54:00,54.6,47.0,30.31,North,360,0.0,0.0,75,0.00,,,0.00,230,weatherlink.com 1.10,2013-02-27 17:54:00,
2013-02-27 10:24:00,54.3,47.0,30.31,North,-999,0.0,0.0,77,0.00,,,0.00,570,weatherlink.com 1.10,2013-02-27 18:24:00,
2013-02-27 10:39:00,54.4,47.0,30.31,North,360,0.0,0.0,76,0.00,,,0.00,397,weatherlink.com 1.10,2013-02-27 18:39:00,
2013-02-27 10:54:00,55.4,48.0,30.30,North,-999,0.0,0.0,75,0.00,,,0.00,642,weatherlink.com 1.10,2013-02-27 18:54:00,
2013-02-27 11:09:00,58.2,49.0,30.30,North,-999,0.0,0.0,71,0.00,,,0.00,664,weatherlink.com 1.10,2013-02-27 19:09:00,
2013-02-27 11:24:00,60.2,49.0,30.30,North,-999,0.0,0.0,66,0.00,,,0.00,673,weatherlink.com 1.10,2013-02-27 19:24:00,
2013-02-27 11:39:00,59.9,48.0,30.30,North,-999,0.0,0.0,65,0.00,,,0.00,693,weatherlink.com 1.10,2013-02-27 19:39:00,
2013-02-27 11:54:00,57.1,47.0,30.31,North,-999,0.0,0.0,69,0.00,,,0.00,693,weatherlink.com 1.10,2013-02-27 19:54:00,
2013-02-27 12:09:00,57.8,48.0,30.30,North,-999,0.0,0.0,69,0.00,,,0.00,698,weatherlink.com 1.10,2013-02-27 20:09:00,
2013-02-27 12:24:00,59.7,49.0,30.30,North,360,0.0,0.0,67,0.00,,,0.00,696,weatherlink.com 1.10,2013-02-27 20:24:00,
2013-02-27 12:39:00,59.1,48.0,30.30,North,360,0.0,0.0,66,0.00,,,0.00,693,weatherlink.com 1.10,2013-02-27 20:39:00,
2013-02-27 12:54:00,59.2,48.0,30.29,North,-999,0.0,0.0,67,0.00,,,0.00,673,weatherlink.com 1.10,2013-02-27 20:54:00,
2013-02-27 13:09:00,59.2,48.0,30.29,North,360,0.0,0.0,66,0.00,,,0.00,494,weatherlink.com 1.10,2013-02-27 21:09:00,
2013-02-27 13:24:00,57.8,46.0,30.29,North,-999,0.0,0.0,66,0.00,,,0.00,58,weatherlink.com 1.10,2013-02-27 21:24:00,
2013-02-27 13:39:00,55.9,45.0,30.28,North,-999,0.0,0.0,68,0.00,,,0.00,51,weatherlink.com 1.10,2013-02-27 21:39:00,
2013-02-27 13:54:00,55.0,46.0,30.28,North,-999,0.0,0.0,71,0.00,,,0.00,46,weatherlink.com 1.10,2013-02-27 21:54:00,
2013-02-27 14:09:00,55.0,46.0,30.28,North,360,0.0,0.0,71,0.00,,,0.00,53,weatherlink.com 1.10,2013-02-27 22:09:00,
2013-02-27 14:24:00,54.6,46.0,30.28,North,-999,0.0,0.0,72,0.00,,,0.00,47,weatherlink.com 1.10,2013-02-27 22:24:00,
2013-02-27 14:39:00,54.1,46.0,30.28,North,-999,0.0,0.0,74,0.00,,,0.00,39,weatherlink.com 1.10,2013-02-27 22:39:00,
2013-02-27 14:54:00,53.5,44.0,30.28,North,-999,0.0,0.0,70,0.00,,,0.00,40,weatherlink.com 1.10,2013-02-27 22:54:00,
2013-02-27 15:09:00,53.5,45.0,30.28,North,-999,0.0,0.0,72,0.00,,,0.00,33,weatherlink.com 1.10,2013-02-27 23:09:00,
2013-02-27 15:24:00,53.9,44.0,30.28,North,-999,0.0,0.0,69,0.00,,,0.00,30,weatherlink.com 1.10,2013-02-27 23:24:00,
2013-02-27 15:39:00,54.4,43.0,30.28,North,360,0.0,0.0,65,0.00,,,0.00,28,weatherlink.com 1.10,2013-02-27 23:39:00,
2013-02-27 15:54:00,54.6,42.0,30.28,North,360,0.0,0.0,63,0.00,,,0.00,26,weatherlink.com 1.10,2013-02-27 23:54:00,
2013-02-27 16:09:00,54.6,42.0,30.28,North,360,0.0,0.0,63,0.00,,,0.00,33,weatherlink.com 1.10,2013-02-28 00:09:00,
2013-02-27 16:24:00,53.8,43.0,30.28,North,-999,0.0,0.0,66,0.00,,,0.00,23,weatherlink.com 1.10,2013-02-28 00:24:00,
2013-02-27 16:39:00,53.1,42.0,30.28,North,-999,0.0,0.0,65,0.00,,,0.00,19,weatherlink.com 1.10,2013-02-28 00:39:00,
2013-02-27 16:54:00,52.6,39.0,30.29,North,-999,0.0,0.0,60,0.00,,,0.00,18,weatherlink.com 1.10,2013-02-28 00:54:00,
2013-02-27 17:09:00,51.8,42.0,30.29,North,-999,0.0,0.0,70,0.00,,,0.00,16,weatherlink.com 1.10,2013-02-28 01:09:00,
2013-02-27 17:24:00,50.8,42.0,30.29,North,-999,0.0,0.0,73,0.00,,,0.00,12,weatherlink.com 1.10,2013-02-28 01:24:00,
2013-02-27 17:39:00,49.9,42.0,30.30,North,360,0.0,0.0,74,0.00,,,0.00,9,weatherlink.com 1.10,2013-02-28 01:39:00,
2013-02-27 17:54:00,49.2,42.0,30.30,North,-999,0.0,0.0,75,0.00,,,0.00,0,weatherlink.com 1.10,2013-02-28 01:54:00,
2013-02-27 18:09:00,48.7,42.0,30.30,North,-999,0.0,0.0,78,0.00,,,0.00,0,weatherlink.com 1.10,2013-02-28 02:09:00,
2013-02-27 18:24:00,48.4,43.0,30.30,North,-999,0.0,0.0,80,0.00,,,0.00,0,weatherlink.com 1.10,2013-02-28 02:24:00,
2013-02-27 18:39:00,48.2,43.0,30.31,North,-999,0.0,0.0,83,0.00,,,0.00,0,weatherlink.com 1.10,2013-02-28 02:39:00,
2013-02-27 18:54:00,48.0,44.0,30.32,North,-999,0.0,0.0,86,0.00,,,0.00,0,weatherlink.com 1.10,2013-02-28 02:54:00,
2013-02-27 19:09:00,47.7,44.0,30.32,North,-999,0.0,0.0,88,0.00,,,0.00,0,weatherlink.com 1.10,2013-02-28 03:09:00,
2013-02-27 19:24:00,47.5,45.0,30.33,North,-999,0.0,0.0,89,0.00,,,0.00,0,weatherlink.com 1.10,2013-02-28 03:24:00,
2013-02-27 19:39:00,47.4,45.0,30.33,North,-999,0.0,0.0,91,0.00,,,0.00,0,weatherlink.com 1.10,2013-02-28 03:39:00,
2013-02-27 19:54:00,47.5,45.0,30.33,North,360,0.0,0.0,91,0.00,,,0.00,0,weatherlink.com 1.10,2013-02-28 03:54:00,
2013-02-27 20:09:00,47.5,45.0,30.34,North,360,0.0,0.0,92,0.00,,,0.00,0,weatherlink.com 1.10,2013-02-28 04:09:00,
2013-02-27 20:24:00,47.6,45.0,30.34,North,-999,0.0,0.0,92,0.00,,,0.00,0,weatherlink.com 1.10,2013-02-28 04:24:00,
2013-02-27 20:39:00,47.6,45.0,30.34,North,360,0.0,0.0,92,0.00,,,0.00,0,weatherlink.com 1.10,2013-02-28 04:39:00,
2013-02-27 20:54:00,47.4,46.0,30.34,North,-999,0.0,0.0,93,0.00,,,0.00,0,weatherlink.com 1.10,2013-02-28 04:54:00,
2013-02-27 21:09:00,47.3,45.0,30.34,North,360,0.0,0.0,93,0.00,,,0.00,0,weatherlink.com 1.10,2013-02-28 05:09:00,
2013-02-27 21:24:00,47.2,45.0,30.35,North,360,0.0,0.0,93,0.00,,,0.00,0,weatherlink.com 1.10,2013-02-28 05:24:00,
2013-02-27 21:39:00,47.1,46.0,30.35,North,-999,0.0,0.0,94,0.00,,,0.00,0,weatherlink.com 1.10,2013-02-28 05:39:00,
2013-02-27 21:54:00,47.0,45.0,30.35,North,360,0.0,0.0,94,0.00,,,0.00,0,weatherlink.com 1.10,2013-02-28 05:54:00,
2013-02-27 22:09:00,46.9,45.0,30.35,North,-999,0.0,0.0,94,0.00,,,0.00,0,weatherlink.com 1.10,2013-02-28 06:09:00,
2013-02-27 22:25:00,46.9,45.0,30.35,North,-999,0.0,0.0,94,0.00,,,0.00,0,weatherlink.com 1.10,2013-02-28 06:25:00,
2013-02-27 22:40:00,46.9,45.0,30.35,North,-999,0.0,0.0,94,0.00,,,0.00,0,weatherlink.com 1.10,2013-02-28 06:40:00,
2013-02-27 22:55:00,46.8,45.0,30.36,North,-999,0.0,0.0,94,0.00,,,0.00,0,weatherlink.com 1.10,2013-02-28 06:55:00,
2013-02-27 23:10:00,46.7,45.0,30.36,North,360,0.0,0.0,94,0.00,,,0.00,0,weatherlink.com 1.10,2013-02-28 07:10:00,
2013-02-27 23:25:00,46.7,45.0,30.36,North,360,0.0,0.0,95,0.00,,,0.00,0,weatherlink.com 1.10,2013-02-28 07:25:00,
2013-02-27 23:40:00,46.8,46.0,30.36,North,360,0.0,0.0,95,0.00,,,0.00,0,weatherlink.com 1.10,2013-02-28 07:40:00,
2013-02-27 23:55:00,46.7,45.0,30.36,North,-999,0.0,0.0,95,0.00,,,0.00,0,weatherlink.com 1.10,2013-02-28 07:55:00,